Share

Wilson Creek, WA (98860)

Adrian (KWASOAPL2) Elev 1207 ft | 47.39 °N, 119.38 °W | Change Station

Current weather conditions updated 2 seconds ago

Clear
Clear
53.6 °F
Feels Like 53.6 °F
N
4.3
Wind Variable Wind from WSW
Gusts 4.9 mph
Sunrise 6:02 AM
Sunset 7:50 PM
Moon Waning Gibbous

Today is forecast to be Warmer than yesterday.

Pressure 29.95 in
Visibility 10.0 miles
Clouds Clear
Dew Point 29 °F
Humidity 38%
Rainfall 0.00 in
Snow Depth Not available.
UV 3 out of 16
Pollen 8.60 out of 12
Air Quality Not available.
Flu Activity Sporadic
METAR KMWH 181552Z 28008KT 10SM CLR 11/M02 A2994 RMK AO2 SLP140 T01061017

More Conditions Fewer Conditions

Pressure 29.95 in
Visibility 10.0 miles
Clouds Clear
Dew Point 29 °F
Humidity 38%
Rainfall 0.00 in
Snow Depth Not available.
UV 3 out of 16
Pollen 8.60 out of 12
Air Quality Not available.
Flu Activity Sporadic
METAR KMWH 181552Z 28008KT 10SM CLR 11/M02 A2994 RMK AO2 SLP140 T01061017

More Conditions Fewer Conditions

10-Day Forecast

Almanac

Astronomy

Apr. 18, 2014 Rise Set
Actual Time 6:02 AM PDT 7:50 PM PDT
Civil Twilight 5:29 AM PDT 8:22 PM PDT
Nautical Twilight 4:49 AM PDT 9:02 PM PDT
Astronomical Twilight 4:06 AM PDT 9:47 PM PDT
Moon 11:49 PM PDT 8:19 AM PDT
Length of Visible Light 14h 53m
Length of Day
13h 48m
Tomorrow will be 3m 14s longer.
Waning Gibbous, 87% of the Moon is Illuminated
Today
Waning Gibbous
Apr 22
Last Quarter
Apr 29
New
May 6
First Quarter
May 14
Full

Today's Extremes

State Highs State Lows

Community

  • What's for Lunch?
    What's for Lunch?
  • SUNRISE THROUGH THE TREES.
    SUNRISE THROUGH THE TREES.
  • Dog Wood Blossoms
    Dog Wood Blossoms
  • Morning Light
    Morning Light
  • New Day
    New Day

WunderPhotos

Upload Photos

1,702,408 photos uploaded!

Nearby

Snow Depth

Station Depth Elevation
Trough 14 in 5300 ft
Upper Wheeler 17 in 4400 ft
Grouse Camp 18 in 5380 ft
Moses Mountain 19 in 5300 ft
Blewett Pass 5 in 4270 ft

Coastal Water Temperatures

Place Temperature
No Stations Reporting

Earthquake Activity

City Distance Mag. Time & Date
Princeton, Canada 148 miles 2.5 2:14 PM PDT
2014-04-12
Minimum magnitude displayed is 2.5.

Nearby Weather Stations

Station Location Temp. Windchill Dew Point Humidity Wind Precip. Elev Updated Type
Adrian, Soap Lake, WA 53.6 °F - 29 °F 38% WSW  at  4.3 mph 0.00 in / hr 1207 ft 9:49 AM PDT Rapid Fire
Grange Supply of Odessa, Odessa, WA 47.3 °F 41 °F 29 °F 48% ESE  at  16.0 mph 0.00 in / hr 1572 ft 9:49 AM PDT Rapid Fire
Civic Center, Moses Lake, WA 52.0 °F - 30 °F 43% West  at  4.0 mph 0.00 in / hr 1056 ft 9:49 AM PDT Rapid Fire

Show More Stations Show Fewer Stations

What do you think?

We're not finished. Please let us know what you like, what you don't like, and what you are still missing.